createdAt,value
2019-04-14T00:01:52.626Z,7.05
2019-04-14T00:04:29.003Z,7.07
2019-04-14T00:07:01.542Z,6.97
2019-04-14T00:09:33.966Z,7.00
2019-04-14T00:12:07.945Z,7.06
2019-04-14T00:14:40.430Z,7.03
2019-04-14T00:17:13.501Z,6.99
2019-04-14T00:19:45.725Z,6.95
2019-04-14T00:22:18.379Z,6.90
2019-04-14T00:24:51.099Z,6.95
2019-04-14T00:27:23.614Z,6.91
2019-04-14T00:29:56.811Z,6.94
2019-04-14T00:32:31.282Z,6.90
2019-04-14T00:35:13.043Z,6.88
2019-04-14T00:38:06.548Z,6.89
2019-04-14T00:40:45.430Z,6.85
2019-04-14T00:43:37.788Z,6.86
2019-04-14T00:46:16.928Z,6.85
2019-04-14T00:48:49.770Z,6.81
2019-04-14T00:51:22.149Z,6.77
2019-04-14T00:53:53.893Z,6.72
2019-04-14T00:56:26.196Z,6.76
2019-04-14T00:58:58.279Z,6.73
2019-04-14T01:01:30.846Z,6.71
2019-04-14T01:04:03.450Z,6.67
2019-04-14T01:06:36.117Z,6.66
2019-04-14T01:09:11.291Z,6.68
2019-04-14T01:11:44.346Z,6.62
2019-04-14T01:14:16.933Z,6.62
2019-04-14T01:16:49.532Z,6.63
2019-04-14T01:19:22.025Z,6.59
2019-04-14T01:21:54.576Z,6.60
2019-04-14T01:24:27.500Z,6.57
2019-04-14T01:26:59.777Z,6.55
2019-04-14T01:29:31.972Z,6.49
2019-04-14T01:32:04.532Z,6.52
2019-04-14T01:34:37.101Z,6.46
2019-04-14T01:37:09.407Z,6.48
2019-04-14T01:39:41.720Z,6.41
2019-04-14T01:42:14.035Z,6.42
2019-04-14T01:44:46.060Z,6.39
2019-04-14T01:47:18.272Z,6.36
2019-04-14T01:49:50.861Z,6.41
2019-04-14T01:52:40.668Z,6.32
2019-04-14T01:55:35.473Z,6.32
2019-04-14T01:58:16.703Z,6.33
2019-04-14T02:01:08.415Z,6.32
2019-04-14T02:03:40.965Z,6.16
2019-04-14T02:06:13.609Z,6.20
2019-04-14T02:08:45.976Z,6.19
2019-04-14T02:11:20.474Z,6.11
2019-04-14T02:13:52.977Z,6.05
2019-04-14T02:16:33.013Z,6.05
2019-04-14T02:18:58.754Z,6.12
2019-04-14T02:21:30.579Z,6.06
2019-04-14T02:24:02.683Z,6.07
2019-04-14T02:26:35.154Z,6.07
2019-04-14T02:29:07.963Z,6.05
2019-04-14T02:32:09.943Z,6.04
2019-04-14T02:34:39.158Z,5.98
2019-04-14T02:37:26.423Z,5.92
2019-04-14T02:40:01.321Z,5.94
2019-04-14T02:44:59.922Z,5.80
2019-04-14T02:47:45.475Z,5.82
2019-04-14T02:52:35.362Z,5.56
2019-04-14T02:55:05.211Z,5.74
2019-04-14T03:00:32.603Z,5.59
2019-04-14T03:02:48.788Z,5.65
2019-04-14T03:05:27.073Z,5.64
2019-04-14T03:07:59.897Z,5.53
2019-04-14T03:10:34.043Z,5.62
2019-04-14T03:13:15.531Z,5.62
2019-04-14T03:15:39.725Z,5.57
2019-04-14T03:21:19.564Z,5.48
2019-04-14T03:26:49.502Z,5.39
2019-04-14T03:29:21.377Z,5.44
2019-04-14T03:34:52.279Z,5.22
2019-04-14T03:39:41.969Z,5.32
2019-04-14T03:42:13.142Z,5.29
2019-04-14T03:44:56.407Z,5.20
2019-04-14T03:47:22.065Z,5.20
2019-04-14T03:49:56.437Z,5.11
2019-04-14T03:52:35.041Z,5.06
2019-04-14T03:54:50.172Z,5.03
2019-04-14T03:57:06.330Z,4.99
2019-04-14T03:59:39.142Z,4.93
2019-04-14T04:02:11.826Z,4.80
2019-04-14T04:04:44.518Z,4.74
2019-04-14T04:07:17.092Z,4.84
2019-04-14T04:09:54.745Z,4.81
2019-04-14T04:12:27.272Z,4.79
2019-04-14T04:15:00.377Z,4.72
2019-04-14T04:17:47.999Z,4.70
2019-04-14T04:20:45.585Z,4.71
2019-04-14T04:23:42.634Z,4.67
2019-04-14T04:26:23.406Z,4.65
2019-04-14T04:29:02.763Z,4.58
2019-04-14T04:31:52.660Z,4.72
2019-04-14T04:34:33.841Z,4.65
2019-04-14T04:37:43.338Z,4.65
2019-04-14T04:40:22.339Z,4.59
2019-04-14T04:42:54.846Z,4.65
2019-04-14T04:45:27.797Z,4.55
2019-04-14T04:48:00.254Z,4.64
2019-04-14T04:50:32.696Z,4.63
2019-04-14T04:53:04.873Z,4.61
2019-04-14T04:55:37.400Z,4.53
2019-04-14T04:58:10.057Z,4.61
2019-04-14T05:00:42.095Z,4.64
2019-04-14T05:03:14.630Z,4.73
2019-04-14T05:06:48.236Z,4.76
2019-04-14T05:09:29.985Z,4.85
2019-04-14T05:12:24.286Z,4.89
2019-04-14T05:15:21.107Z,4.89
2019-04-14T05:17:53.776Z,4.91
2019-04-14T05:20:27.020Z,5.05
2019-04-14T05:22:59.552Z,5.02
2019-04-14T05:25:31.826Z,5.17
2019-04-14T05:28:04.795Z,5.23
2019-04-14T05:30:37.153Z,5.23
2019-04-14T05:33:09.641Z,5.45
2019-04-14T05:35:42.345Z,5.54
2019-04-14T05:38:14.830Z,5.49
2019-04-14T05:40:47.511Z,5.60
2019-04-14T05:43:31.865Z,5.61
2019-04-14T05:45:54.401Z,5.62
2019-04-14T05:48:27.239Z,5.72
2019-04-14T05:50:59.866Z,5.71
2019-04-14T05:53:32.666Z,5.86
2019-04-14T05:56:05.725Z,6.04
2019-04-14T05:58:38.311Z,6.02
2019-04-14T06:01:11.360Z,6.19
2019-04-14T06:03:43.471Z,6.25
2019-04-14T06:06:15.225Z,6.44
2019-04-14T06:08:47.705Z,6.51
2019-04-14T06:11:19.474Z,6.49
2019-04-14T06:13:51.644Z,6.70
2019-04-14T06:16:23.427Z,6.78
2019-04-14T06:18:55.455Z,6.90
2019-04-14T06:21:27.233Z,6.97
2019-04-14T06:23:59.588Z,7.01
2019-04-14T06:26:31.393Z,7.09
2019-04-14T06:29:03.586Z,7.27
2019-04-14T06:31:55.653Z,7.43
2019-04-14T06:34:46.673Z,7.54
2019-04-14T06:37:29.870Z,7.71
2019-04-14T06:40:02.541Z,7.91
2019-04-14T06:42:34.376Z,7.96
2019-04-14T06:45:07.091Z,8.12
2019-04-14T06:47:39.324Z,8.36
2019-04-14T06:50:12.791Z,8.52
2019-04-14T06:52:44.540Z,8.46
2019-04-14T06:55:17.121Z,8.56
2019-04-14T06:57:48.919Z,8.64
2019-04-14T07:00:21.053Z,8.70
2019-04-14T07:02:52.881Z,8.73
2019-04-14T07:05:24.966Z,8.96
2019-04-14T07:07:57.574Z,9.24
2019-04-14T07:10:29.923Z,9.45
2019-04-14T07:13:01.801Z,9.52
2019-04-14T07:15:33.848Z,9.71
2019-04-14T07:18:05.770Z,9.58
2019-04-14T07:20:37.893Z,9.50
2019-04-14T07:23:09.689Z,9.61
2019-04-14T07:25:41.962Z,9.64
2019-04-14T07:28:13.815Z,9.78
2019-04-14T07:31:16.139Z,9.93
2019-04-14T07:33:58.941Z,10.14
2019-04-14T07:36:49.917Z,10.37
2019-04-14T07:39:46.950Z,10.45
2019-04-14T07:42:31.587Z,10.75
2019-04-14T07:45:08.792Z,10.75
2019-04-14T07:47:53.123Z,10.75
2019-04-14T07:50:55.921Z,10.68
2019-04-14T07:53:33.696Z,10.83
2019-04-14T07:56:13.939Z,10.93
2019-04-14T07:59:14.401Z,10.84
2019-04-14T08:02:13.969Z,11.17
2019-04-14T08:04:50.820Z,11.41
2019-04-14T08:07:22.672Z,11.66
2019-04-14T08:09:54.850Z,11.82
2019-04-14T08:12:26.865Z,11.84
2019-04-14T08:14:59.155Z,12.01
2019-04-14T08:17:31.055Z,11.98
2019-04-14T08:20:03.146Z,12.35
2019-04-14T08:22:35.205Z,12.48
2019-04-14T08:25:07.978Z,12.35
2019-04-14T08:27:39.954Z,12.51
2019-04-14T08:30:13.299Z,12.59
2019-04-14T08:32:45.136Z,12.62
2019-04-14T08:35:17.131Z,12.86
2019-04-14T08:37:49.185Z,12.76
2019-04-14T08:40:21.458Z,12.60
2019-04-14T08:43:13.299Z,12.46
2019-04-14T08:45:56.106Z,12.44
2019-04-14T08:48:45.627Z,12.77
2019-04-14T08:51:36.480Z,12.71
2019-04-14T08:54:20.177Z,13.25
2019-04-14T08:56:58.582Z,13.45
2019-04-14T08:59:41.952Z,13.48
2019-04-14T09:02:32.943Z,13.71
2019-04-14T09:05:26.753Z,13.68
2019-04-14T09:08:10.612Z,13.83
2019-04-14T09:10:45.486Z,13.59
2019-04-14T09:13:18.197Z,13.74
2019-04-14T09:15:50.468Z,13.95
2019-04-14T09:18:22.775Z,14.19
2019-04-14T09:20:54.754Z,14.08
2019-04-14T09:23:27.927Z,13.90
2019-04-14T09:25:59.929Z,13.71
2019-04-14T09:28:32.084Z,14.13
2019-04-14T09:31:04.577Z,14.03
2019-04-14T09:33:38.392Z,13.77
2019-04-14T09:36:10.291Z,14.11
2019-04-14T09:38:42.282Z,14.31
2019-04-14T09:41:14.216Z,14.25
2019-04-14T09:43:46.532Z,14.10
2019-04-14T09:46:18.899Z,14.16
2019-04-14T09:48:51.059Z,14.08
2019-04-14T09:51:22.907Z,14.42
2019-04-14T09:53:54.827Z,14.12
2019-04-14T09:56:26.607Z,14.52
2019-04-14T09:58:59.012Z,14.55
2019-04-14T10:01:31.300Z,14.71
2019-04-14T10:04:03.545Z,14.79
2019-04-14T10:06:35.367Z,14.70
2019-04-14T10:09:08.686Z,14.72
2019-04-14T10:11:48.389Z,14.38
2019-04-14T10:14:14.599Z,14.38
2019-04-14T10:16:46.718Z,14.55
2019-04-14T10:19:18.811Z,14.35
2019-04-14T10:21:50.714Z,14.31
2019-04-14T10:24:22.836Z,14.38
2019-04-14T10:26:54.730Z,14.61
2019-04-14T10:29:26.854Z,14.59
2019-04-14T10:31:59.021Z,14.70
2019-04-14T10:34:31.101Z,14.48
2019-04-14T10:37:03.063Z,14.64
2019-04-14T10:39:35.225Z,14.70
2019-04-14T10:42:07.121Z,14.71
2019-04-14T10:44:39.160Z,14.56
2019-04-14T10:47:11.076Z,14.33
2019-04-14T10:49:43.384Z,14.43
2019-04-14T10:52:15.220Z,14.75
2019-04-14T10:54:47.458Z,14.79
2019-04-14T10:57:19.341Z,14.83
2019-04-14T10:59:52.206Z,15.09
2019-04-14T11:02:24.381Z,15.02
2019-04-14T11:04:56.564Z,14.86
2019-04-14T11:07:30.986Z,14.89
2019-04-14T11:10:03.147Z,14.85
2019-04-14T11:12:35.182Z,14.86
2019-04-14T11:15:11.049Z,14.38
2019-04-14T11:17:43.419Z,14.46
2019-04-14T11:20:15.818Z,14.61
2019-04-14T11:22:47.797Z,14.58
2019-04-14T11:25:20.439Z,14.77
2019-04-14T11:27:52.322Z,14.65
2019-04-14T11:30:25.273Z,14.20
2019-04-14T11:33:08.774Z,14.25
2019-04-14T11:35:56.343Z,14.17
2019-04-14T11:38:34.127Z,14.53
2019-04-14T11:41:10.713Z,14.50
2019-04-14T11:43:43.813Z,14.81
2019-04-14T11:46:16.183Z,14.92
2019-04-14T11:48:48.321Z,15.28
2019-04-14T11:51:20.605Z,15.52
2019-04-14T11:53:52.504Z,15.62
2019-04-14T11:56:24.727Z,15.65
2019-04-14T11:58:56.629Z,15.93
2019-04-14T12:01:50.840Z,16.06
2019-04-14T12:04:33.201Z,15.55
2019-04-14T12:07:33.396Z,15.50
2019-04-14T12:10:16.611Z,15.30
2019-04-14T12:12:48.805Z,15.84
2019-04-14T12:15:20.680Z,16.02
2019-04-14T12:17:52.749Z,15.89
2019-04-14T12:20:24.570Z,16.33
2019-04-14T12:22:56.752Z,16.45
2019-04-14T12:25:28.553Z,17.20
2019-04-14T12:28:00.909Z,18.00
2019-04-14T12:30:33.540Z,18.44
2019-04-14T12:33:06.130Z,18.09
2019-04-14T12:35:38.124Z,18.88
2019-04-14T12:38:10.517Z,20.18
2019-04-14T12:40:43.017Z,21.55
2019-04-14T12:43:40.251Z,22.67
2019-04-14T12:46:43.077Z,23.60
2019-04-14T12:49:18.868Z,25.07
2019-04-14T12:52:20.322Z,26.53
2019-04-14T12:54:42.048Z,27.89
2019-04-14T12:57:15.250Z,27.76
2019-04-14T12:59:47.413Z,27.98
2019-04-14T13:02:24.570Z,26.19
2019-04-14T13:04:57.169Z,27.67
2019-04-14T13:07:29.555Z,29.28
2019-04-14T13:10:01.803Z,30.50
2019-04-14T13:12:33.827Z,31.20
2019-04-14T13:15:10.672Z,32.94
2019-04-14T13:17:42.523Z,34.09
2019-04-14T13:20:15.170Z,34.98
2019-04-14T13:22:47.005Z,35.91
2019-04-14T13:25:19.250Z,33.80
2019-04-14T13:27:51.959Z,35.34
2019-04-14T13:30:28.899Z,34.29
2019-04-14T13:33:00.803Z,36.10
2019-04-14T13:35:33.344Z,36.32
2019-04-14T13:38:05.352Z,35.26
2019-04-14T13:40:37.550Z,35.76
2019-04-14T13:43:09.705Z,33.93
2019-04-14T13:45:42.119Z,35.00
2019-04-14T13:48:14.303Z,36.37
2019-04-14T13:50:46.973Z,35.50
2019-04-14T13:53:18.828Z,36.62
2019-04-14T13:55:51.099Z,37.82
2019-04-14T13:58:22.933Z,39.30
2019-04-14T14:00:55.123Z,40.32
2019-04-14T14:03:26.958Z,39.13
2019-04-14T14:05:59.475Z,39.95
2019-04-14T14:08:31.335Z,40.47
2019-04-14T14:11:13.115Z,41.13
2019-04-14T14:13:53.463Z,41.45
2019-04-14T14:16:43.071Z,42.53
2019-04-14T14:19:20.996Z,41.61
2019-04-14T14:21:59.879Z,38.17
2019-04-14T14:24:35.366Z,39.69
2019-04-14T14:27:08.628Z,40.49
2019-04-14T14:29:40.481Z,39.65
2019-04-14T14:32:32.930Z,40.43
2019-04-14T14:35:05.302Z,38.59
2019-04-14T14:37:37.454Z,40.15
2019-04-14T14:40:09.944Z,38.48
2019-04-14T14:42:42.097Z,32.54
2019-04-14T14:45:31.900Z,36.18
2019-04-14T14:48:15.021Z,36.07
2019-04-14T14:50:51.472Z,35.17
2019-04-14T14:53:23.983Z,34.81
2019-04-14T14:55:55.983Z,35.89
2019-04-14T14:58:28.194Z,37.82
2019-04-14T15:01:00.034Z,38.69
2019-04-14T15:03:32.134Z,38.77
2019-04-14T15:06:04.499Z,38.25
2019-04-14T15:08:37.190Z,37.37
2019-04-14T15:11:09.052Z,35.17
2019-04-14T15:13:42.320Z,37.06
2019-04-14T15:16:14.376Z,38.49
2019-04-14T15:18:47.798Z,39.78
2019-04-14T15:21:19.773Z,39.37
2019-04-14T15:23:52.002Z,39.97
2019-04-14T15:26:23.871Z,38.79
2019-04-14T15:28:55.997Z,39.04
2019-04-14T15:31:29.438Z,38.50
2019-04-14T15:34:01.728Z,36.18
2019-04-14T15:36:33.677Z,36.34
2019-04-14T15:39:08.002Z,37.50
2019-04-14T15:41:40.116Z,37.71
2019-04-14T15:44:12.145Z,38.51
2019-04-14T15:46:44.077Z,39.27
2019-04-14T15:49:16.260Z,37.82
2019-04-14T15:51:48.346Z,37.76
2019-04-14T15:54:20.740Z,37.22
2019-04-14T15:57:01.263Z,37.08
2019-04-14T15:59:44.251Z,36.50
2019-04-14T16:02:35.083Z,36.00
2019-04-14T16:05:35.818Z,36.26
2019-04-14T16:08:21.904Z,35.80
2019-04-14T16:11:08.676Z,35.28
2019-04-14T16:14:05.550Z,34.99
2019-04-14T16:16:56.419Z,33.68
2019-04-14T16:19:43.203Z,29.81
2019-04-14T16:22:15.483Z,25.94
2019-04-14T16:24:48.382Z,23.81
2019-04-14T16:27:38.279Z,22.82
2019-04-14T16:30:18.937Z,21.61
2019-04-14T16:33:22.214Z,21.54
2019-04-14T16:35:55.016Z,21.53
2019-04-14T16:38:27.083Z,20.12
2019-04-14T16:40:59.360Z,18.84
2019-04-14T16:43:31.484Z,17.73
2019-04-14T16:46:03.672Z,16.43
2019-04-14T16:48:35.850Z,15.79
2019-04-14T16:51:09.475Z,15.35
2019-04-14T16:53:43.394Z,15.12
2019-04-14T16:56:44.349Z,14.77
2019-04-14T16:59:17.549Z,14.55
2019-04-14T17:01:50.297Z,14.09
2019-04-14T17:04:22.663Z,14.02
2019-04-14T17:06:54.820Z,13.87
2019-04-14T17:09:27.287Z,13.62
2019-04-14T17:11:59.573Z,13.23
2019-04-14T17:14:40.066Z,13.20
2019-04-14T17:17:29.624Z,13.08
2019-04-14T17:20:26.888Z,12.86
2019-04-14T17:23:36.152Z,12.70
2019-04-14T17:26:12.802Z,12.49
2019-04-14T17:29:00.184Z,12.27
2019-04-14T17:31:43.898Z,12.12
2019-04-14T17:34:21.591Z,11.98
2019-04-14T17:37:11.493Z,11.88
2019-04-14T17:40:05.675Z,11.78
2019-04-14T17:42:47.011Z,11.64
2019-04-14T17:45:29.730Z,11.48
2019-04-14T17:48:24.331Z,11.33
2019-04-14T17:51:10.108Z,11.29
2019-04-14T17:54:07.219Z,11.16
2019-04-14T17:56:47.359Z,11.06
2019-04-14T17:59:48.289Z,10.95
2019-04-14T18:02:25.828Z,10.73
2019-04-14T18:05:08.626Z,10.87
2019-04-14T18:07:52.168Z,10.81
2019-04-14T18:10:49.842Z,10.70
2019-04-14T18:13:37.340Z,10.68
2019-04-14T18:16:34.666Z,10.59
2019-04-14T18:19:30.645Z,10.49
2019-04-14T18:22:03.050Z,10.42
2019-04-14T18:24:42.336Z,10.37
2019-04-14T18:27:10.287Z,10.31
2019-04-14T18:29:51.506Z,10.29
2019-04-14T18:32:41.160Z,10.24
2019-04-14T18:35:31.141Z,10.17
2019-04-14T18:38:35.871Z,10.13
2019-04-14T18:41:23.373Z,10.06
2019-04-14T18:44:09.211Z,9.99
2019-04-14T18:47:10.414Z,9.92
2019-04-14T18:49:58.954Z,9.88
2019-04-14T18:52:49.038Z,9.83
2019-04-14T18:55:46.322Z,9.74
2019-04-14T18:58:37.116Z,9.76
2019-04-14T19:01:31.522Z,9.70
2019-04-14T19:04:04.589Z,9.68
2019-04-14T19:06:37.561Z,9.63
2019-04-14T19:09:11.038Z,9.57
2019-04-14T19:11:50.736Z,9.52
2019-04-14T19:14:48.510Z,9.48
2019-04-14T19:17:42.885Z,9.46
2019-04-14T19:20:17.639Z,9.40
2019-04-14T19:22:50.743Z,9.31
2019-04-14T19:25:24.075Z,9.27
2019-04-14T19:27:56.682Z,9.24
2019-04-14T19:30:30.205Z,9.17
2019-04-14T19:33:03.000Z,9.13
2019-04-14T19:35:36.787Z,9.07
2019-04-14T19:38:09.171Z,9.02
2019-04-14T19:40:42.439Z,8.96
2019-04-14T19:43:23.671Z,8.91
2019-04-14T19:45:49.528Z,8.86
2019-04-14T19:48:22.455Z,8.82
2019-04-14T19:50:55.835Z,8.78
2019-04-14T19:53:28.905Z,8.72
2019-04-14T19:56:02.463Z,8.66
2019-04-14T19:58:35.630Z,8.59
2019-04-14T20:01:10.080Z,8.54
2019-04-14T20:03:43.087Z,8.53
2019-04-14T20:06:15.821Z,8.51
2019-04-14T20:08:47.952Z,8.47
2019-04-14T20:11:20.805Z,8.47
2019-04-14T20:13:53.574Z,8.42
2019-04-14T20:16:57.117Z,8.38
2019-04-14T20:20:01.052Z,8.32
2019-04-14T20:22:52.446Z,8.28
2019-04-14T20:25:59.281Z,8.23
2019-04-14T20:28:56.487Z,8.21
2019-04-14T20:31:37.946Z,8.17
2019-04-14T20:34:10.606Z,8.12
2019-04-14T20:36:43.416Z,8.09
2019-04-14T20:39:17.472Z,8.09
2019-04-14T20:41:50.233Z,8.07
2019-04-14T20:44:22.871Z,8.05
2019-04-14T20:46:55.692Z,8.04
2019-04-14T20:49:28.386Z,7.99
2019-04-14T20:52:01.165Z,7.98
2019-04-14T20:54:34.191Z,7.95
2019-04-14T20:57:07.101Z,7.95
2019-04-14T20:59:39.943Z,7.93
2019-04-14T21:02:31.044Z,7.84
2019-04-14T21:05:11.462Z,7.80
2019-04-14T21:08:06.226Z,7.74
2019-04-14T21:10:44.067Z,7.73
2019-04-14T21:13:26.265Z,7.69
2019-04-14T21:16:20.588Z,7.65
2019-04-14T21:18:58.417Z,7.58
2019-04-14T21:21:58.841Z,7.56
2019-04-14T21:24:50.077Z,7.51
2019-04-14T21:27:56.822Z,7.44
2019-04-14T21:30:57.390Z,7.43
2019-04-14T21:33:52.157Z,7.37
2019-04-14T21:36:52.471Z,7.29
2019-04-14T21:39:56.926Z,7.25
2019-04-14T21:42:31.211Z,7.20
2019-04-14T21:45:04.827Z,7.15
2019-04-14T21:47:37.553Z,7.08
2019-04-14T21:50:10.752Z,7.03
2019-04-14T21:52:49.490Z,6.98
2019-04-14T21:55:22.162Z,6.94
2019-04-14T21:58:19.651Z,6.87
2019-04-14T22:01:53.716Z,6.81
2019-04-14T22:04:43.890Z,6.76
2019-04-14T22:07:42.024Z,6.67
2019-04-14T22:10:30.273Z,6.63
2019-04-14T22:13:03.159Z,6.58
2019-04-14T22:15:35.425Z,6.49
2019-04-14T22:18:08.339Z,6.43
2019-04-14T22:20:40.811Z,6.40
2019-04-14T22:23:13.836Z,6.36
2019-04-14T22:25:46.502Z,6.32
2019-04-14T22:28:19.363Z,6.27
2019-04-14T22:30:51.954Z,6.23
2019-04-14T22:33:24.676Z,6.18
2019-04-14T22:35:57.077Z,6.14
2019-04-14T22:38:29.290Z,6.08
2019-04-14T22:41:01.368Z,6.02
2019-04-14T22:43:33.949Z,5.95
2019-04-14T22:46:05.956Z,5.93
2019-04-14T22:48:39.573Z,5.87
2019-04-14T22:51:12.210Z,5.81
2019-04-14T22:53:44.629Z,5.77
2019-04-14T22:56:16.572Z,5.73
2019-04-14T22:58:49.707Z,5.66
2019-04-14T23:01:25.617Z,5.62
2019-04-14T23:04:19.115Z,5.60
2019-04-14T23:07:04.776Z,5.55
2019-04-14T23:10:05.018Z,5.51
2019-04-14T23:12:43.348Z,5.44
2019-04-14T23:15:32.817Z,5.38
2019-04-14T23:18:26.613Z,5.34
2019-04-14T23:21:16.690Z,5.26
2019-04-14T23:24:01.808Z,5.22
2019-04-14T23:26:35.260Z,5.17
2019-04-14T23:29:07.105Z,5.10
2019-04-14T23:31:40.288Z,5.08
2019-04-14T23:34:12.199Z,4.99
2019-04-14T23:36:44.525Z,5.04
2019-04-14T23:39:16.359Z,5.00
2019-04-14T23:41:48.447Z,4.95
2019-04-14T23:44:20.368Z,4.90
2019-04-14T23:46:52.577Z,4.82
2019-04-14T23:49:24.462Z,4.78
2019-04-14T23:51:56.527Z,4.74
2019-04-14T23:54:28.480Z,4.72
2019-04-14T23:57:06.130Z,4.67
2019-04-14T23:59:34.271Z,4.62
